This is the latest recevied weather packets stored in our database for station/object N2RDT. If no packets are shown the sender has not sent any weather packets the latest 10 day(s).
| Time | Temp. | Humidity | Pressure | Rain* | Wind** | Luminosity | Snow |
|---|---|---|---|---|---|---|---|
| 1777309374 | 17.78° C | 53% | 1023.7 hPa | 0 mm | - | 966 W/m² | - |
| 1777309071 | 17.78° C | 53% | 1023.8 hPa | 0 mm | - | 964 W/m² | - |
| 1777308768 | 17.22° C | 55% | 1023.6 hPa | 0 mm | - | 963 W/m² | - |
| 1777308463 | 17.22° C | 54% | 1023.9 hPa | 0 mm | - | 958 W/m² | - |
| 1777308159 | 17.78° C | 52% | 1023.9 hPa | 0 mm | - | 958 W/m² | - |
| 1777307855 | 17.22° C | 54% | 1024.1 hPa | 0 mm | - | 953 W/m² | - |
| 1777307554 | 17.22° C | 54% | 1024.2 hPa | 0 mm | - | 949 W/m² | - |
| 1777307250 | 16.67° C | 58% | 1024.1 hPa | 0 mm | - | 949 W/m² | - |
| 1777306948 | 17.22° C | 54% | 1024.1 hPa | 0 mm | - | 500 W/m² | - |
| 1777306644 | 16.67° C | 56% | 1024.2 hPa | 0 mm | - | 975 W/m² | - |
| 1777306341 | 16.67° C | 57% | 1024.1 hPa | 0 mm | - | 300 W/m² | - |
| 1777306036 | 16.67° C | 55% | 1024.3 hPa | 0 mm | - | 948 W/m² | - |
| 1777305734 | 16.67° C | 57% | 1024.3 hPa | 0 mm | - | 411 W/m² | - |
| 1777305429 | 16.11° C | 56% | 1024.1 hPa | 0 mm | - | 922 W/m² | - |
| 1777305129 | 16.11° C | 56% | 1024.3 hPa | 0 mm | - | 914 W/m² | - |
| 1777304823 | 16.67° C | 58% | 1024.4 hPa | 0 mm | - | 904 W/m² | - |
| 1777304521 | 16.67° C | 58% | 1024.3 hPa | 0 mm | - | 919 W/m² | - |
| 1777304219 | 16.11° C | 57% | 1024.5 hPa | 0 mm | - | 895 W/m² | - |
| 1777303915 | 15.56° C | 60% | 1024.4 hPa | 0 mm | - | 894 W/m² | - |
| 1777303612 | 15.56° C | 60% | 1024.5 hPa | 0 mm | - | 891 W/m² | - |
| 1777303310 | 15.56° C | 61% | 1024.5 hPa | 0 mm | - | 873 W/m² | - |
| 1777303007 | 16.11° C | 58% | 1024.5 hPa | 0 mm | - | 893 W/m² | - |
| 1777302704 | 15.56° C | 59% | 1024.7 hPa | 0 mm | - | 893 W/m² | - |
| 1777302402 | 15° C | 66% | 1024.5 hPa | 0 mm | - | 878 W/m² | - |
| 1777302100 | 15° C | 62% | 1025 hPa | 0 mm | - | 234 W/m² | - |
* Rain latest hour (hover to see other rain measurements)
** Current wind speed in m/s (hover to see current wind gust speed)